sensor_id;sensor_type;location;lat;lon;timestamp;P1;durP1;ratioP1;P2;durP2;ratioP2
18159;SDS011;9205;52.032;4.314;2022-08-25T00:02:07;11.15;;;7.15;;
18159;SDS011;9205;52.032;4.314;2022-08-25T00:04:35;10.95;;;7.18;;
18159;SDS011;9205;52.032;4.314;2022-08-25T00:07:02;9.45;;;6.57;;
18159;SDS011;9205;52.032;4.314;2022-08-25T00:09:31;11.95;;;7.40;;
18159;SDS011;9205;52.032;4.314;2022-08-25T00:12:00;10.77;;;7.32;;
18159;SDS011;9205;52.032;4.314;2022-08-25T00:14:31;11.48;;;7.53;;
18159;SDS011;9205;52.032;4.314;2022-08-25T00:17:01;10.52;;;7.03;;
18159;SDS011;9205;52.032;4.314;2022-08-25T00:19:31;10.90;;;7.60;;
18159;SDS011;9205;52.032;4.314;2022-08-25T00:22:02;12.02;;;7.55;;
18159;SDS011;9205;52.032;4.314;2022-08-25T00:24:30;10.70;;;7.65;;
18159;SDS011;9205;52.032;4.314;2022-08-25T00:26:58;10.93;;;7.72;;
18159;SDS011;9205;52.032;4.314;2022-08-25T00:29:27;9.38;;;6.78;;
18159;SDS011;9205;52.032;4.314;2022-08-25T00:31:57;10.30;;;7.47;;
18159;SDS011;9205;52.032;4.314;2022-08-25T00:34:27;9.85;;;7.13;;
18159;SDS011;9205;52.032;4.314;2022-08-25T00:36:58;9.63;;;7.40;;
18159;SDS011;9205;52.032;4.314;2022-08-25T00:39:26;10.82;;;7.55;;
18159;SDS011;9205;52.032;4.314;2022-08-25T00:41:55;11.27;;;7.47;;
18159;SDS011;9205;52.032;4.314;2022-08-25T00:44:24;10.90;;;7.45;;
18159;SDS011;9205;52.032;4.314;2022-08-25T00:46:56;9.40;;;7.30;;
18159;SDS011;9205;52.032;4.314;2022-08-25T00:49:28;10.35;;;7.43;;
18159;SDS011;9205;52.032;4.314;2022-08-25T00:52:02;9.60;;;7.38;;
18159;SDS011;9205;52.032;4.314;2022-08-25T00:54:35;12.30;;;7.70;;
18159;SDS011;9205;52.032;4.314;2022-08-25T00:57:08;10.38;;;7.72;;
18159;SDS011;9205;52.032;4.314;2022-08-25T00:59:42;14.27;;;8.82;;
18159;SDS011;9205;52.032;4.314;2022-08-25T01:02:11;12.80;;;8.23;;
18159;SDS011;9205;52.032;4.314;2022-08-25T01:04:43;13.18;;;8.25;;
18159;SDS011;9205;52.032;4.314;2022-08-25T01:07:12;14.75;;;7.50;;
18159;SDS011;9205;52.032;4.314;2022-08-25T01:09:43;11.80;;;8.13;;
18159;SDS011;9205;52.032;4.314;2022-08-25T01:12:13;10.65;;;7.72;;
18159;SDS011;9205;52.032;4.314;2022-08-25T01:14:41;12.85;;;7.95;;
18159;SDS011;9205;52.032;4.314;2022-08-25T01:17:13;10.52;;;7.75;;
18159;SDS011;9205;52.032;4.314;2022-08-25T01:19:40;12.30;;;8.52;;
18159;SDS011;9205;52.032;4.314;2022-08-25T01:22:09;13.40;;;8.13;;
18159;SDS011;9205;52.032;4.314;2022-08-25T01:24:38;11.07;;;8.30;;
18159;SDS011;9205;52.032;4.314;2022-08-25T01:27:12;11.80;;;8.70;;
18159;SDS011;9205;52.032;4.314;2022-08-25T01:29:40;11.48;;;7.97;;
18159;SDS011;9205;52.032;4.314;2022-08-25T01:32:09;10.65;;;8.10;;
18159;SDS011;9205;52.032;4.314;2022-08-25T01:34:40;11.18;;;8.23;;
18159;SDS011;9205;52.032;4.314;2022-08-25T01:37:12;11.30;;;7.50;;
18159;SDS011;9205;52.032;4.314;2022-08-25T01:39:41;11.52;;;8.10;;
18159;SDS011;9205;52.032;4.314;2022-08-25T01:42:22;10.43;;;7.85;;
18159;SDS011;9205;52.032;4.314;2022-08-25T01:45:04;11.52;;;8.23;;
18159;SDS011;9205;52.032;4.314;2022-08-25T01:47:33;10.32;;;7.68;;
18159;SDS011;9205;52.032;4.314;2022-08-25T01:50:00;12.10;;;8.93;;
18159;SDS011;9205;52.032;4.314;2022-08-25T01:52:31;12.48;;;8.73;;
18159;SDS011;9205;52.032;4.314;2022-08-25T01:55:03;11.48;;;8.80;;
18159;SDS011;9205;52.032;4.314;2022-08-25T01:57:31;10.93;;;8.23;;
18159;SDS011;9205;52.032;4.314;2022-08-25T01:59:59;11.38;;;8.55;;
18159;SDS011;9205;52.032;4.314;2022-08-25T02:02:36;11.88;;;8.07;;
18159;SDS011;9205;52.032;4.314;2022-08-25T02:05:04;13.05;;;9.15;;
18159;SDS011;9205;52.032;4.314;2022-08-25T02:07:34;13.55;;;9.45;;
18159;SDS011;9205;52.032;4.314;2022-08-25T02:10:03;9.98;;;7.63;;
18159;SDS011;9205;52.032;4.314;2022-08-25T02:12:32;12.00;;;7.85;;
18159;SDS011;9205;52.032;4.314;2022-08-25T02:15:01;10.88;;;7.90;;
18159;SDS011;9205;52.032;4.314;2022-08-25T02:17:31;11.68;;;8.75;;
18159;SDS011;9205;52.032;4.314;2022-08-25T02:20:01;13.80;;;9.25;;
18159;SDS011;9205;52.032;4.314;2022-08-25T02:22:30;13.40;;;8.88;;
18159;SDS011;9205;52.032;4.314;2022-08-25T02:24:59;11.55;;;8.80;;
18159;SDS011;9205;52.032;4.314;2022-08-25T02:27:26;12.93;;;8.88;;
18159;SDS011;9205;52.032;4.314;2022-08-25T02:29:54;11.82;;;8.10;;
18159;SDS011;9205;52.032;4.314;2022-08-25T02:32:21;11.82;;;8.48;;
18159;SDS011;9205;52.032;4.314;2022-08-25T02:34:48;14.15;;;9.10;;
18159;SDS011;9205;52.032;4.314;2022-08-25T02:37:15;11.50;;;8.55;;
18159;SDS011;9205;52.032;4.314;2022-08-25T02:39:42;10.70;;;8.05;;
18159;SDS011;9205;52.032;4.314;2022-08-25T02:42:11;12.25;;;7.78;;
18159;SDS011;9205;52.032;4.314;2022-08-25T02:44:39;12.43;;;8.55;;
18159;SDS011;9205;52.032;4.314;2022-08-25T02:47:06;13.07;;;8.10;;
18159;SDS011;9205;52.032;4.314;2022-08-25T02:49:34;10.00;;;7.68;;
18159;SDS011;9205;52.032;4.314;2022-08-25T02:52:01;12.25;;;8.63;;
18159;SDS011;9205;52.032;4.314;2022-08-25T02:54:29;15.38;;;8.95;;
18159;SDS011;9205;52.032;4.314;2022-08-25T02:56:59;13.68;;;9.07;;
18159;SDS011;9205;52.032;4.314;2022-08-25T02:59:28;11.30;;;7.95;;
18159;SDS011;9205;52.032;4.314;2022-08-25T03:01:56;11.13;;;8.50;;
18159;SDS011;9205;52.032;4.314;2022-08-25T03:04:23;10.63;;;7.63;;
18159;SDS011;9205;52.032;4.314;2022-08-25T03:06:51;9.63;;;7.80;;
18159;SDS011;9205;52.032;4.314;2022-08-25T03:09:18;11.77;;;7.30;;
18159;SDS011;9205;52.032;4.314;2022-08-25T03:11:47;10.82;;;7.47;;
18159;SDS011;9205;52.032;4.314;2022-08-25T03:14:14;12.68;;;8.35;;
18159;SDS011;9205;52.032;4.314;2022-08-25T03:16:43;13.20;;;7.95;;
18159;SDS011;9205;52.032;4.314;2022-08-25T03:19:10;9.52;;;7.18;;
18159;SDS011;9205;52.032;4.314;2022-08-25T03:21:37;10.23;;;7.03;;
18159;SDS011;9205;52.032;4.314;2022-08-25T03:24:05;10.35;;;7.65;;
18159;SDS011;9205;52.032;4.314;2022-08-25T03:26:33;10.15;;;7.85;;
18159;SDS011;9205;52.032;4.314;2022-08-25T03:29:18;9.98;;;7.57;;
18159;SDS011;9205;52.032;4.314;2022-08-25T03:31:47;9.82;;;7.60;;
18159;SDS011;9205;52.032;4.314;2022-08-25T03:34:15;10.00;;;6.97;;
18159;SDS011;9205;52.032;4.314;2022-08-25T03:36:46;9.13;;;7.22;;
18159;SDS011;9205;52.032;4.314;2022-08-25T03:39:15;11.18;;;7.78;;
18159;SDS011;9205;52.032;4.314;2022-08-25T03:41:44;10.10;;;7.20;;
18159;SDS011;9205;52.032;4.314;2022-08-25T03:44:12;8.70;;;6.75;;
18159;SDS011;9205;52.032;4.314;2022-08-25T03:46:45;8.85;;;6.82;;
18159;SDS011;9205;52.032;4.314;2022-08-25T03:49:18;8.55;;;6.85;;
18159;SDS011;9205;52.032;4.314;2022-08-25T03:51:52;9.13;;;6.93;;
18159;SDS011;9205;52.032;4.314;2022-08-25T03:54:23;8.52;;;6.35;;
18159;SDS011;9205;52.032;4.314;2022-08-25T03:56:51;9.05;;;7.00;;
18159;SDS011;9205;52.032;4.314;2022-08-25T03:59:19;10.13;;;7.25;;
18159;SDS011;9205;52.032;4.314;2022-08-25T04:01:48;8.67;;;6.77;;
18159;SDS011;9205;52.032;4.314;2022-08-25T04:04:16;9.77;;;7.13;;
18159;SDS011;9205;52.032;4.314;2022-08-25T04:06:43;8.73;;;6.63;;
18159;SDS011;9205;52.032;4.314;2022-08-25T04:09:11;8.25;;;6.20;;
18159;SDS011;9205;52.032;4.314;2022-08-25T04:11:39;11.50;;;6.83;;
18159;SDS011;9205;52.032;4.314;2022-08-25T04:14:06;9.87;;;7.20;;
18159;SDS011;9205;52.032;4.314;2022-08-25T04:16:33;8.18;;;6.07;;
18159;SDS011;9205;52.032;4.314;2022-08-25T04:19:03;9.52;;;6.85;;
18159;SDS011;9205;52.032;4.314;2022-08-25T04:21:33;9.00;;;6.50;;
18159;SDS011;9205;52.032;4.314;2022-08-25T04:24:01;7.73;;;6.07;;
18159;SDS011;9205;52.032;4.314;2022-08-25T04:26:31;8.23;;;6.50;;
18159;SDS011;9205;52.032;4.314;2022-08-25T04:29:03;8.27;;;6.30;;
18159;SDS011;9205;52.032;4.314;2022-08-25T04:31:34;7.90;;;5.90;;
18159;SDS011;9205;52.032;4.314;2022-08-25T04:34:03;9.23;;;6.23;;
18159;SDS011;9205;52.032;4.314;2022-08-25T04:36:32;9.75;;;6.75;;
18159;SDS011;9205;52.032;4.314;2022-08-25T04:39:00;11.13;;;6.83;;
18159;SDS011;9205;52.032;4.314;2022-08-25T04:41:27;7.97;;;5.93;;
18159;SDS011;9205;52.032;4.314;2022-08-25T04:43:56;8.70;;;6.70;;
18159;SDS011;9205;52.032;4.314;2022-08-25T04:46:27;9.30;;;6.33;;
18159;SDS011;9205;52.032;4.314;2022-08-25T04:48:59;7.83;;;6.00;;
18159;SDS011;9205;52.032;4.314;2022-08-25T04:51:30;9.20;;;6.33;;
18159;SDS011;9205;52.032;4.314;2022-08-25T04:54:01;8.33;;;6.20;;
18159;SDS011;9205;52.032;4.314;2022-08-25T04:56:31;8.53;;;6.93;;
18159;SDS011;9205;52.032;4.314;2022-08-25T04:59:01;9.97;;;6.23;;
18159;SDS011;9205;52.032;4.314;2022-08-25T05:01:31;9.13;;;5.93;;
18159;SDS011;9205;52.032;4.314;2022-08-25T05:03:59;9.30;;;6.27;;
18159;SDS011;9205;52.032;4.314;2022-08-25T05:06:32;9.10;;;6.20;;
18159;SDS011;9205;52.032;4.314;2022-08-25T05:09:00;7.97;;;6.20;;
18159;SDS011;9205;52.032;4.314;2022-08-25T05:11:28;8.40;;;6.27;;
18159;SDS011;9205;52.032;4.314;2022-08-25T05:13:56;7.50;;;5.90;;
18159;SDS011;9205;52.032;4.314;2022-08-25T05:16:26;9.63;;;6.73;;
18159;SDS011;9205;52.032;4.314;2022-08-25T05:18:54;8.20;;;6.37;;
18159;SDS011;9205;52.032;4.314;2022-08-25T05:21:23;7.60;;;6.03;;
18159;SDS011;9205;52.032;4.314;2022-08-25T05:23:55;7.13;;;5.50;;
18159;SDS011;9205;52.032;4.314;2022-08-25T05:26:25;9.23;;;6.23;;
18159;SDS011;9205;52.032;4.314;2022-08-25T05:28:56;7.27;;;6.00;;
18159;SDS011;9205;52.032;4.314;2022-08-25T05:31:25;8.23;;;6.00;;
18159;SDS011;9205;52.032;4.314;2022-08-25T05:33:53;7.90;;;6.00;;
18159;SDS011;9205;52.032;4.314;2022-08-25T05:36:22;8.30;;;5.53;;
18159;SDS011;9205;52.032;4.314;2022-08-25T05:38:52;10.73;;;6.10;;
18159;SDS011;9205;52.032;4.314;2022-08-25T05:41:23;9.83;;;6.80;;
18159;SDS011;9205;52.032;4.314;2022-08-25T05:43:53;9.53;;;6.27;;
18159;SDS011;9205;52.032;4.314;2022-08-25T05:46:20;8.17;;;6.43;;
18159;SDS011;9205;52.032;4.314;2022-08-25T05:48:48;9.63;;;6.17;;
18159;SDS011;9205;52.032;4.314;2022-08-25T05:51:16;8.95;;;6.32;;
18159;SDS011;9205;52.032;4.314;2022-08-25T05:53:45;9.00;;;6.07;;
18159;SDS011;9205;52.032;4.314;2022-08-25T05:56:15;9.67;;;6.50;;
18159;SDS011;9205;52.032;4.314;2022-08-25T05:58:45;9.50;;;6.37;;
18159;SDS011;9205;52.032;4.314;2022-08-25T06:01:20;8.20;;;6.20;;
18159;SDS011;9205;52.032;4.314;2022-08-25T06:04:08;8.67;;;6.63;;
18159;SDS011;9205;52.032;4.314;2022-08-25T06:06:36;8.10;;;6.50;;
18159;SDS011;9205;52.032;4.314;2022-08-25T06:09:04;7.30;;;6.17;;
18159;SDS011;9205;52.032;4.314;2022-08-25T06:11:33;10.50;;;6.40;;
18159;SDS011;9205;52.032;4.314;2022-08-25T06:14:06;7.77;;;6.30;;
18159;SDS011;9205;52.032;4.314;2022-08-25T06:16:34;9.10;;;6.63;;
18159;SDS011;9205;52.032;4.314;2022-08-25T06:19:02;7.37;;;5.63;;
18159;SDS011;9205;52.032;4.314;2022-08-25T06:21:30;9.27;;;6.47;;
18159;SDS011;9205;52.032;4.314;2022-08-25T06:23:57;9.43;;;6.43;;
18159;SDS011;9205;52.032;4.314;2022-08-25T06:26:27;7.13;;;5.77;;
18159;SDS011;9205;52.032;4.314;2022-08-25T06:28:55;7.87;;;5.97;;
18159;SDS011;9205;52.032;4.314;2022-08-25T06:31:24;6.93;;;5.60;;
18159;SDS011;9205;52.032;4.314;2022-08-25T06:33:51;10.63;;;6.43;;
18159;SDS011;9205;52.032;4.314;2022-08-25T06:36:18;9.37;;;6.83;;
18159;SDS011;9205;52.032;4.314;2022-08-25T06:38:46;7.90;;;5.87;;
18159;SDS011;9205;52.032;4.314;2022-08-25T06:41:17;8.60;;;6.47;;
18159;SDS011;9205;52.032;4.314;2022-08-25T06:43:44;10.33;;;6.70;;
18159;SDS011;9205;52.032;4.314;2022-08-25T06:46:12;9.30;;;6.60;;
18159;SDS011;9205;52.032;4.314;2022-08-25T06:48:43;10.07;;;7.13;;
18159;SDS011;9205;52.032;4.314;2022-08-25T06:51:11;9.63;;;6.87;;
18159;SDS011;9205;52.032;4.314;2022-08-25T06:53:41;8.73;;;6.30;;
18159;SDS011;9205;52.032;4.314;2022-08-25T06:56:10;7.87;;;6.30;;
18159;SDS011;9205;52.032;4.314;2022-08-25T06:58:39;10.33;;;6.40;;
18159;SDS011;9205;52.032;4.314;2022-08-25T07:01:07;10.23;;;7.13;;
18159;SDS011;9205;52.032;4.314;2022-08-25T07:03:36;7.40;;;6.10;;
18159;SDS011;9205;52.032;4.314;2022-08-25T07:06:05;7.77;;;6.50;;
18159;SDS011;9205;52.032;4.314;2022-08-25T07:08:33;10.00;;;6.32;;
18159;SDS011;9205;52.032;4.314;2022-08-25T07:11:03;7.60;;;5.70;;
18159;SDS011;9205;52.032;4.314;2022-08-25T07:13:31;9.00;;;5.80;;
18159;SDS011;9205;52.032;4.314;2022-08-25T07:15:59;8.00;;;6.00;;
18159;SDS011;9205;52.032;4.314;2022-08-25T07:18:26;7.88;;;5.90;;
18159;SDS011;9205;52.032;4.314;2022-08-25T07:20:54;8.95;;;5.47;;
18159;SDS011;9205;52.032;4.314;2022-08-25T07:23:23;9.17;;;6.83;;
18159;SDS011;9205;52.032;4.314;2022-08-25T07:25:52;9.63;;;6.80;;
18159;SDS011;9205;52.032;4.314;2022-08-25T07:28:20;8.30;;;5.93;;
18159;SDS011;9205;52.032;4.314;2022-08-25T07:30:49;8.98;;;6.30;;
18159;SDS011;9205;52.032;4.314;2022-08-25T07:33:16;7.00;;;5.43;;
18159;SDS011;9205;52.032;4.314;2022-08-25T07:35:44;8.15;;;5.70;;
18159;SDS011;9205;52.032;4.314;2022-08-25T07:38:10;8.77;;;5.20;;
18159;SDS011;9205;52.032;4.314;2022-08-25T07:40:39;7.15;;;5.18;;
18159;SDS011;9205;52.032;4.314;2022-08-25T07:43:06;10.50;;;5.00;;
18159;SDS011;9205;52.032;4.314;2022-08-25T07:45:35;9.40;;;4.90;;
18159;SDS011;9205;52.032;4.314;2022-08-25T07:48:05;7.10;;;4.70;;
18159;SDS011;9205;52.032;4.314;2022-08-25T07:50:37;6.97;;;4.85;;
18159;SDS011;9205;52.032;4.314;2022-08-25T07:53:08;7.72;;;5.20;;
18159;SDS011;9205;52.032;4.314;2022-08-25T07:55:39;7.93;;;4.60;;
18159;SDS011;9205;52.032;4.314;2022-08-25T07:58:07;6.85;;;4.70;;
18159;SDS011;9205;52.032;4.314;2022-08-25T08:00:36;5.97;;;4.80;;
18159;SDS011;9205;52.032;4.314;2022-08-25T08:03:06;7.05;;;4.45;;
18159;SDS011;9205;52.032;4.314;2022-08-25T08:05:35;7.25;;;4.68;;
18159;SDS011;9205;52.032;4.314;2022-08-25T08:08:05;4.95;;;4.35;;
18159;SDS011;9205;52.032;4.314;2022-08-25T08:10:32;6.35;;;4.07;;
18159;SDS011;9205;52.032;4.314;2022-08-25T08:13:01;5.97;;;3.55;;
18159;SDS011;9205;52.032;4.314;2022-08-25T08:15:28;5.28;;;3.97;;
18159;SDS011;9205;52.032;4.314;2022-08-25T08:17:56;5.55;;;3.50;;
18159;SDS011;9205;52.032;4.314;2022-08-25T08:20:24;7.88;;;3.67;;
18159;SDS011;9205;52.032;4.314;2022-08-25T08:22:53;4.22;;;3.10;;
18159;SDS011;9205;52.032;4.314;2022-08-25T08:25:20;5.63;;;3.20;;
18159;SDS011;9205;52.032;4.314;2022-08-25T08:27:47;7.53;;;3.65;;
18159;SDS011;9205;52.032;4.314;2022-08-25T08:30:16;4.13;;;2.80;;
18159;SDS011;9205;52.032;4.314;2022-08-25T08:32:45;3.47;;;2.63;;
18159;SDS011;9205;52.032;4.314;2022-08-25T08:35:14;3.13;;;2.80;;
18159;SDS011;9205;52.032;4.314;2022-08-25T08:37:43;5.28;;;2.80;;
18159;SDS011;9205;52.032;4.314;2022-08-25T08:40:11;5.45;;;2.90;;
18159;SDS011;9205;52.032;4.314;2022-08-25T08:43:09;3.85;;;2.70;;
18159;SDS011;9205;52.032;4.314;2022-08-25T08:45:59;3.78;;;2.45;;
18159;SDS011;9205;52.032;4.314;2022-08-25T08:49:03;3.50;;;2.47;;
18159;SDS011;9205;52.032;4.314;2022-08-25T08:51:50;2.75;;;2.33;;
18159;SDS011;9205;52.032;4.314;2022-08-25T08:54:28;2.97;;;2.40;;
18159;SDS011;9205;52.032;4.314;2022-08-25T08:57:04;3.00;;;2.40;;
18159;SDS011;9205;52.032;4.314;2022-08-25T08:59:43;4.05;;;2.28;;
18159;SDS011;9205;52.032;4.314;2022-08-25T09:02:21;3.25;;;2.30;;
18159;SDS011;9205;52.032;4.314;2022-08-25T09:05:00;2.75;;;2.30;;
18159;SDS011;9205;52.032;4.314;2022-08-25T09:07:34;3.60;;;2.15;;
18159;SDS011;9205;52.032;4.314;2022-08-25T09:10:07;3.67;;;2.42;;
18159;SDS011;9205;52.032;4.314;2022-08-25T09:12:37;4.88;;;2.38;;
18159;SDS011;9205;52.032;4.314;2022-08-25T09:15:13;8.00;;;2.20;;
18159;SDS011;9205;52.032;4.314;2022-08-25T09:18:17;2.17;;;1.90;;
18159;SDS011;9205;52.032;4.314;2022-08-25T09:21:02;2.58;;;2.05;;
18159;SDS011;9205;52.032;4.314;2022-08-25T09:23:45;2.75;;;2.20;;
18159;SDS011;9205;52.032;4.314;2022-08-25T09:26:33;3.95;;;2.10;;
18159;SDS011;9205;52.032;4.314;2022-08-25T09:29:09;3.28;;;2.00;;
18159;SDS011;9205;52.032;4.314;2022-08-25T09:31:43;3.70;;;2.10;;
18159;SDS011;9205;52.032;4.314;2022-08-25T09:34:17;2.70;;;2.13;;
18159;SDS011;9205;52.032;4.314;2022-08-25T09:36:47;2.28;;;2.08;;
18159;SDS011;9205;52.032;4.314;2022-08-25T09:39:17;3.15;;;2.05;;
18159;SDS011;9205;52.032;4.314;2022-08-25T09:41:46;2.22;;;1.95;;
18159;SDS011;9205;52.032;4.314;2022-08-25T09:44:18;3.40;;;2.30;;
18159;SDS011;9205;52.032;4.314;2022-08-25T09:46:56;2.25;;;1.80;;
18159;SDS011;9205;52.032;4.314;2022-08-25T09:49:33;2.25;;;2.05;;
18159;SDS011;9205;52.032;4.314;2022-08-25T09:52:22;5.22;;;1.80;;
18159;SDS011;9205;52.032;4.314;2022-08-25T09:55:00;3.15;;;2.00;;
18159;SDS011;9205;52.032;4.314;2022-08-25T09:57:58;2.50;;;1.85;;
18159;SDS011;9205;52.032;4.314;2022-08-25T10:00:29;1.90;;;1.70;;
18159;SDS011;9205;52.032;4.314;2022-08-25T10:03:02;2.10;;;1.80;;
18159;SDS011;9205;52.032;4.314;2022-08-25T10:05:38;4.88;;;2.13;;
18159;SDS011;9205;52.032;4.314;2022-08-25T10:08:26;3.22;;;1.98;;
18159;SDS011;9205;52.032;4.314;2022-08-25T10:11:00;2.55;;;2.10;;
18159;SDS011;9205;52.032;4.314;2022-08-25T10:13:34;3.33;;;1.77;;
18159;SDS011;9205;52.032;4.314;2022-08-25T10:16:08;2.33;;;1.85;;
18159;SDS011;9205;52.032;4.314;2022-08-25T10:18:54;3.00;;;1.85;;
18159;SDS011;9205;52.032;4.314;2022-08-25T10:21:36;2.78;;;1.70;;
18159;SDS011;9205;52.032;4.314;2022-08-25T10:24:07;2.38;;;1.60;;
18159;SDS011;9205;52.032;4.314;2022-08-25T10:26:40;1.88;;;1.60;;
18159;SDS011;9205;52.032;4.314;2022-08-25T10:29:33;1.83;;;1.60;;
18159;SDS011;9205;52.032;4.314;2022-08-25T10:32:30;2.17;;;1.50;;
18159;SDS011;9205;52.032;4.314;2022-08-25T10:35:42;2.05;;;1.45;;
18159;SDS011;9205;52.032;4.314;2022-08-25T10:38:41;1.80;;;1.40;;
18159;SDS011;9205;52.032;4.314;2022-08-25T10:41:20;3.33;;;1.50;;
18159;SDS011;9205;52.032;4.314;2022-08-25T10:44:08;2.70;;;1.73;;
18159;SDS011;9205;52.032;4.314;2022-08-25T10:47:22;2.75;;;1.33;;
18159;SDS011;9205;52.032;4.314;2022-08-25T10:50:12;1.98;;;1.80;;
18159;SDS011;9205;52.032;4.314;2022-08-25T10:53:10;1.85;;;1.50;;
18159;SDS011;9205;52.032;4.314;2022-08-25T10:56:05;2.45;;;1.40;;
18159;SDS011;9205;52.032;4.314;2022-08-25T10:58:48;1.60;;;1.42;;
18159;SDS011;9205;52.032;4.314;2022-08-25T11:01:34;1.88;;;1.45;;
18159;SDS011;9205;52.032;4.314;2022-08-25T11:04:17;1.30;;;1.20;;
18159;SDS011;9205;52.032;4.314;2022-08-25T11:06:53;3.80;;;1.50;;
18159;SDS011;9205;52.032;4.314;2022-08-25T11:09:29;1.92;;;1.60;;
18159;SDS011;9205;52.032;4.314;2022-08-25T11:12:12;3.70;;;2.13;;
18159;SDS011;9205;52.032;4.314;2022-08-25T11:14:50;2.17;;;1.80;;
18159;SDS011;9205;52.032;4.314;2022-08-25T11:17:25;1.75;;;1.50;;
18159;SDS011;9205;52.032;4.314;2022-08-25T11:20:04;1.75;;;1.63;;
18159;SDS011;9205;52.032;4.314;2022-08-25T11:22:41;2.42;;;1.77;;
18159;SDS011;9205;52.032;4.314;2022-08-25T11:25:13;1.77;;;1.67;;
18159;SDS011;9205;52.032;4.314;2022-08-25T11:27:52;1.83;;;1.63;;
18159;SDS011;9205;52.032;4.314;2022-08-25T11:30:39;2.50;;;1.80;;
18159;SDS011;9205;52.032;4.314;2022-08-25T11:33:10;2.35;;;1.55;;
18159;SDS011;9205;52.032;4.314;2022-08-25T11:35:49;1.90;;;1.58;;
18159;SDS011;9205;52.032;4.314;2022-08-25T11:38:35;1.65;;;1.52;;
18159;SDS011;9205;52.032;4.314;2022-08-25T11:41:20;2.15;;;1.95;;
18159;SDS011;9205;52.032;4.314;2022-08-25T11:44:03;1.85;;;1.73;;
18159;SDS011;9205;52.032;4.314;2022-08-25T11:46:48;6.45;;;2.45;;
18159;SDS011;9205;52.032;4.314;2022-08-25T11:49:45;2.35;;;1.60;;
18159;SDS011;9205;52.032;4.314;2022-08-25T11:55:14;1.85;;;1.70;;
18159;SDS011;9205;52.032;4.314;2022-08-25T11:57:46;2.40;;;1.88;;
18159;SDS011;9205;52.032;4.314;2022-08-25T12:06:16;2.42;;;2.00;;
18159;SDS011;9205;52.032;4.314;2022-08-25T12:08:53;2.35;;;1.65;;
18159;SDS011;9205;52.032;4.314;2022-08-25T12:11:47;2.67;;;2.00;;
18159;SDS011;9205;52.032;4.314;2022-08-25T12:17:19;3.40;;;1.83;;
18159;SDS011;9205;52.032;4.314;2022-08-25T12:20:03;4.60;;;2.60;;
18159;SDS011;9205;52.032;4.314;2022-08-25T12:22:41;3.50;;;2.40;;
18159;SDS011;9205;52.032;4.314;2022-08-25T12:25:29;4.25;;;3.38;;
18159;SDS011;9205;52.032;4.314;2022-08-25T12:28:34;2.95;;;2.55;;
18159;SDS011;9205;52.032;4.314;2022-08-25T12:31:18;4.53;;;2.83;;
18159;SDS011;9205;52.032;4.314;2022-08-25T12:34:05;5.15;;;4.15;;
18159;SDS011;9205;52.032;4.314;2022-08-25T12:36:54;4.25;;;3.40;;
18159;SDS011;9205;52.032;4.314;2022-08-25T12:39:28;4.82;;;3.78;;
18159;SDS011;9205;52.032;4.314;2022-08-25T12:42:00;4.55;;;3.55;;
18159;SDS011;9205;52.032;4.314;2022-08-25T12:44:41;7.60;;;4.88;;
18159;SDS011;9205;52.032;4.314;2022-08-25T12:47:23;5.32;;;4.22;;
18159;SDS011;9205;52.032;4.314;2022-08-25T12:53:08;5.20;;;4.30;;
18159;SDS011;9205;52.032;4.314;2022-08-25T12:55:42;7.22;;;4.72;;
18159;SDS011;9205;52.032;4.314;2022-08-25T12:58:15;5.47;;;4.45;;
18159;SDS011;9205;52.032;4.314;2022-08-25T13:00:49;7.57;;;4.80;;
18159;SDS011;9205;52.032;4.314;2022-08-25T13:03:48;5.57;;;4.40;;
18159;SDS011;9205;52.032;4.314;2022-08-25T13:12:58;6.63;;;5.47;;
18159;SDS011;9205;52.032;4.314;2022-08-25T13:15:36;8.18;;;5.93;;
18159;SDS011;9205;52.032;4.314;2022-08-25T13:18:13;7.03;;;5.47;;
18159;SDS011;9205;52.032;4.314;2022-08-25T13:20:49;7.55;;;6.40;;
18159;SDS011;9205;52.032;4.314;2022-08-25T13:23:31;9.00;;;6.50;;
18159;SDS011;9205;52.032;4.314;2022-08-25T13:26:03;6.47;;;4.78;;
18159;SDS011;9205;52.032;4.314;2022-08-25T13:28:31;5.28;;;4.28;;
18159;SDS011;9205;52.032;4.314;2022-08-25T13:35:21;7.43;;;5.13;;
18159;SDS011;9205;52.032;4.314;2022-08-25T13:38:10;7.18;;;5.90;;
18159;SDS011;9205;52.032;4.314;2022-08-25T13:43:44;7.60;;;5.80;;
18159;SDS011;9205;52.032;4.314;2022-08-25T13:46:13;7.78;;;6.32;;
18159;SDS011;9205;52.032;4.314;2022-08-25T13:49:24;10.35;;;8.00;;
18159;SDS011;9205;52.032;4.314;2022-08-25T13:51:52;10.52;;;7.50;;
18159;SDS011;9205;52.032;4.314;2022-08-25T13:54:25;9.35;;;7.10;;
18159;SDS011;9205;52.032;4.314;2022-08-25T13:57:06;10.55;;;8.15;;
18159;SDS011;9205;52.032;4.314;2022-08-25T13:59:47;10.13;;;7.63;;
18159;SDS011;9205;52.032;4.314;2022-08-25T14:05:09;11.20;;;7.45;;
18159;SDS011;9205;52.032;4.314;2022-08-25T14:07:39;9.00;;;7.03;;
18159;SDS011;9205;52.032;4.314;2022-08-25T14:10:08;10.85;;;7.38;;
18159;SDS011;9205;52.032;4.314;2022-08-25T14:13:07;10.98;;;7.97;;
18159;SDS011;9205;52.032;4.314;2022-08-25T14:15:40;10.63;;;6.68;;
18159;SDS011;9205;52.032;4.314;2022-08-25T14:18:11;8.88;;;6.47;;
18159;SDS011;9205;52.032;4.314;2022-08-25T14:20:45;8.93;;;6.95;;
18159;SDS011;9205;52.032;4.314;2022-08-25T14:23:18;12.57;;;8.77;;
18159;SDS011;9205;52.032;4.314;2022-08-25T14:25:51;13.48;;;8.82;;
18159;SDS011;9205;52.032;4.314;2022-08-25T14:28:23;14.05;;;9.23;;
18159;SDS011;9205;52.032;4.314;2022-08-25T14:30:56;11.65;;;7.63;;
18159;SDS011;9205;52.032;4.314;2022-08-25T14:33:38;14.82;;;11.68;;
18159;SDS011;9205;52.032;4.314;2022-08-25T14:36:19;14.75;;;10.30;;
18159;SDS011;9205;52.032;4.314;2022-08-25T14:38:46;16.05;;;11.50;;
18159;SDS011;9205;52.032;4.314;2022-08-25T14:41:14;17.05;;;12.70;;
18159;SDS011;9205;52.032;4.314;2022-08-25T14:43:42;15.50;;;12.00;;
18159;SDS011;9205;52.032;4.314;2022-08-25T14:46:12;17.98;;;12.68;;
18159;SDS011;9205;52.032;4.314;2022-08-25T14:48:52;18.33;;;11.77;;
18159;SDS011;9205;52.032;4.314;2022-08-25T14:51:28;17.33;;;11.80;;
18159;SDS011;9205;52.032;4.314;2022-08-25T14:53:58;18.33;;;12.50;;
18159;SDS011;9205;52.032;4.314;2022-08-25T14:56:28;17.67;;;11.75;;
18159;SDS011;9205;52.032;4.314;2022-08-25T14:58:59;17.38;;;12.60;;
18159;SDS011;9205;52.032;4.314;2022-08-25T15:01:33;19.00;;;12.90;;
18159;SDS011;9205;52.032;4.314;2022-08-25T15:04:02;17.45;;;12.45;;
18159;SDS011;9205;52.032;4.314;2022-08-25T15:06:34;19.35;;;13.38;;
18159;SDS011;9205;52.032;4.314;2022-08-25T15:09:03;20.02;;;13.68;;
18159;SDS011;9205;52.032;4.314;2022-08-25T15:11:35;21.27;;;13.50;;
18159;SDS011;9205;52.032;4.314;2022-08-25T15:14:11;18.23;;;12.02;;
18159;SDS011;9205;52.032;4.314;2022-08-25T15:23:40;19.00;;;12.30;;
18159;SDS011;9205;52.032;4.314;2022-08-25T15:26:07;17.60;;;12.98;;
18159;SDS011;9205;52.032;4.314;2022-08-25T15:28:37;16.83;;;12.05;;
18159;SDS011;9205;52.032;4.314;2022-08-25T15:31:14;17.60;;;11.93;;
18159;SDS011;9205;52.032;4.314;2022-08-25T15:33:42;19.73;;;11.82;;
18159;SDS011;9205;52.032;4.314;2022-08-25T15:36:10;16.15;;;11.57;;
18159;SDS011;9205;52.032;4.314;2022-08-25T15:38:41;16.08;;;10.20;;
18159;SDS011;9205;52.032;4.314;2022-08-25T15:41:12;14.35;;;10.07;;
18159;SDS011;9205;52.032;4.314;2022-08-25T15:43:52;16.55;;;10.48;;
18159;SDS011;9205;52.032;4.314;2022-08-25T15:49:18;16.35;;;10.43;;
18159;SDS011;9205;52.032;4.314;2022-08-25T15:51:46;14.80;;;11.23;;
18159;SDS011;9205;52.032;4.314;2022-08-25T15:54:13;19.40;;;10.77;;
18159;SDS011;9205;52.032;4.314;2022-08-25T15:56:41;16.38;;;10.88;;
18159;SDS011;9205;52.032;4.314;2022-08-25T15:59:08;14.55;;;9.63;;
18159;SDS011;9205;52.032;4.314;2022-08-25T16:01:37;15.15;;;9.82;;
18159;SDS011;9205;52.032;4.314;2022-08-25T16:04:09;13.63;;;8.95;;
18159;SDS011;9205;52.032;4.314;2022-08-25T16:06:38;12.80;;;8.30;;
18159;SDS011;9205;52.032;4.314;2022-08-25T16:09:06;12.52;;;9.40;;
18159;SDS011;9205;52.032;4.314;2022-08-25T16:11:33;14.35;;;9.40;;
18159;SDS011;9205;52.032;4.314;2022-08-25T16:14:02;13.20;;;9.73;;